sensor_id;sensor_type;location;lat;lon;timestamp;P1;durP1;ratioP1;P2;durP2;ratioP2
21492;SDS011;10908;50.690;4.400;2022-08-21T00:00:54;8.00;;;2.45;;
21492;SDS011;10908;50.690;4.400;2022-08-21T00:03:20;9.57;;;1.98;;
21492;SDS011;10908;50.690;4.400;2022-08-21T00:05:47;8.02;;;2.00;;
21492;SDS011;10908;50.690;4.400;2022-08-21T00:08:17;7.20;;;1.90;;
21492;SDS011;10908;50.690;4.400;2022-08-21T00:10:43;9.32;;;2.17;;
21492;SDS011;10908;50.690;4.400;2022-08-21T00:13:12;8.38;;;2.10;;
21492;SDS011;10908;50.690;4.400;2022-08-21T00:15:38;7.28;;;1.90;;
21492;SDS011;10908;50.690;4.400;2022-08-21T00:18:05;6.95;;;2.40;;
21492;SDS011;10908;50.690;4.400;2022-08-21T00:20:32;6.40;;;1.85;;
21492;SDS011;10908;50.690;4.400;2022-08-21T00:22:59;5.93;;;1.80;;
21492;SDS011;10908;50.690;4.400;2022-08-21T00:25:25;7.60;;;1.75;;
21492;SDS011;10908;50.690;4.400;2022-08-21T00:27:52;6.53;;;1.80;;
21492;SDS011;10908;50.690;4.400;2022-08-21T00:30:19;8.57;;;2.05;;
21492;SDS011;10908;50.690;4.400;2022-08-21T00:32:46;7.85;;;1.92;;
21492;SDS011;10908;50.690;4.400;2022-08-21T00:35:14;7.63;;;1.80;;
21492;SDS011;10908;50.690;4.400;2022-08-21T00:37:42;7.40;;;1.80;;
21492;SDS011;10908;50.690;4.400;2022-08-21T00:40:11;7.60;;;2.00;;
21492;SDS011;10908;50.690;4.400;2022-08-21T00:42:39;9.70;;;1.85;;
21492;SDS011;10908;50.690;4.400;2022-08-21T00:45:05;10.45;;;2.30;;
21492;SDS011;10908;50.690;4.400;2022-08-21T00:47:32;5.70;;;1.70;;
21492;SDS011;10908;50.690;4.400;2022-08-21T00:49:57;8.20;;;1.70;;
21492;SDS011;10908;50.690;4.400;2022-08-21T00:52:25;6.78;;;1.80;;
21492;SDS011;10908;50.690;4.400;2022-08-21T00:54:54;6.78;;;1.77;;
21492;SDS011;10908;50.690;4.400;2022-08-21T00:57:24;7.28;;;1.80;;
21492;SDS011;10908;50.690;4.400;2022-08-21T00:59:54;8.00;;;2.53;;
21492;SDS011;10908;50.690;4.400;2022-08-21T01:02:23;7.13;;;1.90;;
21492;SDS011;10908;50.690;4.400;2022-08-21T01:04:49;7.82;;;1.92;;
21492;SDS011;10908;50.690;4.400;2022-08-21T01:07:15;8.40;;;2.33;;
21492;SDS011;10908;50.690;4.400;2022-08-21T01:09:41;8.18;;;2.40;;
21492;SDS011;10908;50.690;4.400;2022-08-21T01:12:07;7.85;;;2.67;;
21492;SDS011;10908;50.690;4.400;2022-08-21T01:14:34;7.57;;;2.20;;
21492;SDS011;10908;50.690;4.400;2022-08-21T01:17:00;12.40;;;2.83;;
21492;SDS011;10908;50.690;4.400;2022-08-21T01:19:28;9.15;;;2.22;;
21492;SDS011;10908;50.690;4.400;2022-08-21T01:21:54;7.65;;;2.40;;
21492;SDS011;10908;50.690;4.400;2022-08-21T01:24:20;9.75;;;2.33;;
21492;SDS011;10908;50.690;4.400;2022-08-21T01:26:46;8.25;;;2.00;;
21492;SDS011;10908;50.690;4.400;2022-08-21T01:29:34;7.25;;;2.22;;
21492;SDS011;10908;50.690;4.400;2022-08-21T01:32:10;10.63;;;2.08;;
21492;SDS011;10908;50.690;4.400;2022-08-21T01:34:38;7.88;;;1.60;;
21492;SDS011;10908;50.690;4.400;2022-08-21T01:37:06;6.82;;;1.60;;
21492;SDS011;10908;50.690;4.400;2022-08-21T01:39:32;8.90;;;1.90;;
21492;SDS011;10908;50.690;4.400;2022-08-21T01:41:58;7.13;;;1.95;;
21492;SDS011;10908;50.690;4.400;2022-08-21T01:44:24;6.97;;;1.92;;
21492;SDS011;10908;50.690;4.400;2022-08-21T01:46:50;8.07;;;2.00;;
21492;SDS011;10908;50.690;4.400;2022-08-21T13:51:35;7.72;;;1.63;;
21492;SDS011;10908;50.690;4.400;2022-08-21T13:54:02;8.23;;;1.50;;
21492;SDS011;10908;50.690;4.400;2022-08-21T13:56:44;8.15;;;1.70;;
21492;SDS011;10908;50.690;4.400;2022-08-21T13:59:11;8.82;;;1.63;;
21492;SDS011;10908;50.690;4.400;2022-08-21T14:04:32;6.75;;;1.40;;
21492;SDS011;10908;50.690;4.400;2022-08-21T14:07:21;9.75;;;1.60;;
21492;SDS011;10908;50.690;4.400;2022-08-21T14:09:53;9.57;;;2.03;;
21492;SDS011;10908;50.690;4.400;2022-08-21T14:12:38;9.02;;;1.48;;
21492;SDS011;10908;50.690;4.400;2022-08-21T14:15:08;7.97;;;1.48;;
21492;SDS011;10908;50.690;4.400;2022-08-21T14:17:35;7.68;;;1.45;;
21492;SDS011;10908;50.690;4.400;2022-08-21T14:20:08;9.75;;;1.40;;
21492;SDS011;10908;50.690;4.400;2022-08-21T14:22:43;7.22;;;1.40;;
21492;SDS011;10908;50.690;4.400;2022-08-21T14:27:52;7.38;;;1.50;;
21492;SDS011;10908;50.690;4.400;2022-08-21T14:32:54;6.85;;;1.40;;
21492;SDS011;10908;50.690;4.400;2022-08-21T14:35:19;12.55;;;1.83;;
21492;SDS011;10908;50.690;4.400;2022-08-21T14:37:47;12.90;;;1.90;;
21492;SDS011;10908;50.690;4.400;2022-08-21T14:40:15;6.85;;;1.23;;
21492;SDS011;10908;50.690;4.400;2022-08-21T14:42:42;7.45;;;1.45;;
21492;SDS011;10908;50.690;4.400;2022-08-21T14:45:16;9.13;;;1.48;;
21492;SDS011;10908;50.690;4.400;2022-08-21T14:47:49;8.32;;;1.95;;
21492;SDS011;10908;50.690;4.400;2022-08-21T14:50:15;8.55;;;1.95;;
21492;SDS011;10908;50.690;4.400;2022-08-21T14:52:42;8.63;;;1.80;;
21492;SDS011;10908;50.690;4.400;2022-08-21T14:55:09;7.70;;;1.33;;
21492;SDS011;10908;50.690;4.400;2022-08-21T14:57:38;7.85;;;1.30;;
21492;SDS011;10908;50.690;4.400;2022-08-21T15:00:06;7.47;;;1.27;;
21492;SDS011;10908;50.690;4.400;2022-08-21T15:02:35;8.02;;;1.73;;
21492;SDS011;10908;50.690;4.400;2022-08-21T15:05:01;9.05;;;1.45;;
21492;SDS011;10908;50.690;4.400;2022-08-21T15:07:26;7.18;;;1.67;;
21492;SDS011;10908;50.690;4.400;2022-08-21T15:09:52;9.15;;;1.50;;
21492;SDS011;10908;50.690;4.400;2022-08-21T15:12:18;6.07;;;1.58;;
21492;SDS011;10908;50.690;4.400;2022-08-21T15:14:43;8.02;;;1.40;;
21492;SDS011;10908;50.690;4.400;2022-08-21T15:17:09;7.45;;;1.50;;
21492;SDS011;10908;50.690;4.400;2022-08-21T15:19:36;8.25;;;1.40;;
21492;SDS011;10908;50.690;4.400;2022-08-21T15:22:03;7.05;;;1.85;;
21492;SDS011;10908;50.690;4.400;2022-08-21T15:24:29;11.77;;;1.58;;
21492;SDS011;10908;50.690;4.400;2022-08-21T15:26:54;9.50;;;1.52;;
21492;SDS011;10908;50.690;4.400;2022-08-21T15:29:23;7.88;;;1.67;;
21492;SDS011;10908;50.690;4.400;2022-08-21T15:31:54;9.23;;;1.85;;
21492;SDS011;10908;50.690;4.400;2022-08-21T15:34:22;9.05;;;1.55;;
21492;SDS011;10908;50.690;4.400;2022-08-21T15:36:49;8.63;;;1.60;;
21492;SDS011;10908;50.690;4.400;2022-08-21T15:39:15;6.93;;;1.40;;
21492;SDS011;10908;50.690;4.400;2022-08-21T15:41:41;7.10;;;1.27;;
21492;SDS011;10908;50.690;4.400;2022-08-21T15:46:17;7.20;;;1.58;;
21492;SDS011;10908;50.690;4.400;2022-08-21T15:48:44;10.07;;;1.60;;
21492;SDS011;10908;50.690;4.400;2022-08-21T15:51:11;9.98;;;1.55;;
21492;SDS011;10908;50.690;4.400;2022-08-21T15:53:38;8.20;;;1.40;;
21492;SDS011;10908;50.690;4.400;2022-08-21T15:56:20;7.38;;;1.42;;
21492;SDS011;10908;50.690;4.400;2022-08-21T15:58:48;7.40;;;1.50;;
21492;SDS011;10908;50.690;4.400;2022-08-21T16:01:18;8.73;;;1.50;;
21492;SDS011;10908;50.690;4.400;2022-08-21T16:03:47;8.27;;;1.30;;
21492;SDS011;10908;50.690;4.400;2022-08-21T16:06:15;9.57;;;1.52;;
21492;SDS011;10908;50.690;4.400;2022-08-21T16:08:40;8.00;;;1.70;;
21492;SDS011;10908;50.690;4.400;2022-08-21T16:11:06;7.05;;;1.50;;
21492;SDS011;10908;50.690;4.400;2022-08-21T16:13:36;10.05;;;1.70;;
21492;SDS011;10908;50.690;4.400;2022-08-21T16:16:07;11.27;;;1.63;;
21492;SDS011;10908;50.690;4.400;2022-08-21T16:18:38;6.78;;;1.58;;
21492;SDS011;10908;50.690;4.400;2022-08-21T16:21:05;7.78;;;1.80;;
21492;SDS011;10908;50.690;4.400;2022-08-21T16:23:32;7.57;;;1.80;;
21492;SDS011;10908;50.690;4.400;2022-08-21T16:25:59;12.25;;;1.70;;
21492;SDS011;10908;50.690;4.400;2022-08-21T16:28:27;6.70;;;1.65;;
21492;SDS011;10908;50.690;4.400;2022-08-21T16:30:54;8.50;;;1.55;;
21492;SDS011;10908;50.690;4.400;2022-08-21T16:35:49;8.82;;;1.92;;
21492;SDS011;10908;50.690;4.400;2022-08-21T16:38:15;9.93;;;1.75;;
21492;SDS011;10908;50.690;4.400;2022-08-21T16:40:41;9.60;;;2.00;;
21492;SDS011;10908;50.690;4.400;2022-08-21T16:43:07;9.18;;;1.52;;
21492;SDS011;10908;50.690;4.400;2022-08-21T16:45:33;8.07;;;2.03;;
21492;SDS011;10908;50.690;4.400;2022-08-21T16:47:58;7.80;;;1.55;;
21492;SDS011;10908;50.690;4.400;2022-08-21T16:50:24;9.88;;;1.80;;
21492;SDS011;10908;50.690;4.400;2022-08-21T16:52:50;7.95;;;1.65;;
21492;SDS011;10908;50.690;4.400;2022-08-21T16:55:16;8.05;;;1.58;;
21492;SDS011;10908;50.690;4.400;2022-08-21T16:57:42;7.97;;;1.67;;
21492;SDS011;10908;50.690;4.400;2022-08-21T17:00:08;8.05;;;1.73;;
21492;SDS011;10908;50.690;4.400;2022-08-21T17:02:49;10.35;;;2.17;;
21492;SDS011;10908;50.690;4.400;2022-08-21T17:05:17;5.85;;;1.50;;
21492;SDS011;10908;50.690;4.400;2022-08-21T17:07:43;7.68;;;1.52;;
21492;SDS011;10908;50.690;4.400;2022-08-21T17:10:11;10.13;;;1.95;;
21492;SDS011;10908;50.690;4.400;2022-08-21T17:12:39;7.32;;;1.73;;
21492;SDS011;10908;50.690;4.400;2022-08-21T17:15:19;12.55;;;1.73;;
21492;SDS011;10908;50.690;4.400;2022-08-21T17:17:50;10.25;;;1.67;;
21492;SDS011;10908;50.690;4.400;2022-08-21T17:20:16;10.35;;;1.83;;
21492;SDS011;10908;50.690;4.400;2022-08-21T17:22:43;7.50;;;1.52;;
21492;SDS011;10908;50.690;4.400;2022-08-21T17:25:08;10.48;;;1.75;;
21492;SDS011;10908;50.690;4.400;2022-08-21T17:27:34;7.75;;;1.75;;
21492;SDS011;10908;50.690;4.400;2022-08-21T17:30:00;7.85;;;1.60;;
21492;SDS011;10908;50.690;4.400;2022-08-21T17:32:26;9.75;;;2.10;;
21492;SDS011;10908;50.690;4.400;2022-08-21T17:34:54;10.00;;;1.67;;
21492;SDS011;10908;50.690;4.400;2022-08-21T17:37:20;9.30;;;1.63;;
21492;SDS011;10908;50.690;4.400;2022-08-21T17:39:45;8.02;;;1.77;;
21492;SDS011;10908;50.690;4.400;2022-08-21T17:42:11;8.35;;;1.80;;
21492;SDS011;10908;50.690;4.400;2022-08-21T17:44:39;7.53;;;1.40;;
21492;SDS011;10908;50.690;4.400;2022-08-21T17:47:06;11.05;;;2.05;;
21492;SDS011;10908;50.690;4.400;2022-08-21T17:49:33;9.50;;;1.80;;
21492;SDS011;10908;50.690;4.400;2022-08-21T17:51:59;8.68;;;1.80;;
21492;SDS011;10908;50.690;4.400;2022-08-21T17:54:25;9.50;;;1.65;;
21492;SDS011;10908;50.690;4.400;2022-08-21T17:56:52;11.48;;;2.10;;
21492;SDS011;10908;50.690;4.400;2022-08-21T17:59:20;10.15;;;1.88;;
21492;SDS011;10908;50.690;4.400;2022-08-21T18:01:46;14.68;;;2.10;;
21492;SDS011;10908;50.690;4.400;2022-08-21T18:04:12;13.63;;;2.45;;
21492;SDS011;10908;50.690;4.400;2022-08-21T18:06:39;10.15;;;2.05;;
21492;SDS011;10908;50.690;4.400;2022-08-21T18:09:08;6.75;;;1.52;;
21492;SDS011;10908;50.690;4.400;2022-08-21T18:11:34;8.55;;;1.90;;
21492;SDS011;10908;50.690;4.400;2022-08-21T18:14:01;9.52;;;1.83;;
21492;SDS011;10908;50.690;4.400;2022-08-21T18:16:29;10.73;;;1.92;;
21492;SDS011;10908;50.690;4.400;2022-08-21T18:18:57;7.70;;;2.00;;
21492;SDS011;10908;50.690;4.400;2022-08-21T18:21:25;7.93;;;2.10;;
21492;SDS011;10908;50.690;4.400;2022-08-21T18:23:52;10.15;;;2.10;;
21492;SDS011;10908;50.690;4.400;2022-08-21T18:26:29;8.23;;;1.73;;
21492;SDS011;10908;50.690;4.400;2022-08-21T18:28:59;11.98;;;1.92;;
21492;SDS011;10908;50.690;4.400;2022-08-21T18:31:29;7.65;;;1.80;;
21492;SDS011;10908;50.690;4.400;2022-08-21T18:33:56;10.50;;;2.00;;
21492;SDS011;10908;50.690;4.400;2022-08-21T18:36:21;13.73;;;2.33;;
21492;SDS011;10908;50.690;4.400;2022-08-21T18:38:47;9.18;;;1.80;;
21492;SDS011;10908;50.690;4.400;2022-08-21T18:41:13;8.05;;;1.60;;
21492;SDS011;10908;50.690;4.400;2022-08-21T18:43:38;12.27;;;2.03;;
21492;SDS011;10908;50.690;4.400;2022-08-21T18:46:04;9.30;;;1.95;;
21492;SDS011;10908;50.690;4.400;2022-08-21T18:48:30;8.93;;;1.75;;
21492;SDS011;10908;50.690;4.400;2022-08-21T18:50:56;7.93;;;1.90;;
21492;SDS011;10908;50.690;4.400;2022-08-21T18:53:22;7.68;;;1.90;;
21492;SDS011;10908;50.690;4.400;2022-08-21T18:55:47;9.00;;;2.35;;
21492;SDS011;10908;50.690;4.400;2022-08-21T18:58:14;10.50;;;1.98;;
21492;SDS011;10908;50.690;4.400;2022-08-21T19:00:41;8.00;;;2.05;;
21492;SDS011;10908;50.690;4.400;2022-08-21T19:03:14;9.43;;;2.00;;
21492;SDS011;10908;50.690;4.400;2022-08-21T19:05:43;6.72;;;1.80;;
21492;SDS011;10908;50.690;4.400;2022-08-21T19:08:13;10.38;;;2.05;;
21492;SDS011;10908;50.690;4.400;2022-08-21T19:10:41;11.65;;;2.30;;
21492;SDS011;10908;50.690;4.400;2022-08-21T19:13:09;7.57;;;1.80;;
21492;SDS011;10908;50.690;4.400;2022-08-21T19:15:40;11.90;;;1.90;;
21492;SDS011;10908;50.690;4.400;2022-08-21T19:18:10;7.60;;;1.92;;
21492;SDS011;10908;50.690;4.400;2022-08-21T19:20:38;9.25;;;2.20;;
21492;SDS011;10908;50.690;4.400;2022-08-21T19:23:06;7.78;;;2.25;;
21492;SDS011;10908;50.690;4.400;2022-08-21T19:25:34;7.20;;;2.10;;
21492;SDS011;10908;50.690;4.400;2022-08-21T19:28:05;8.68;;;1.92;;
21492;SDS011;10908;50.690;4.400;2022-08-21T19:30:33;9.50;;;2.08;;
21492;SDS011;10908;50.690;4.400;2022-08-21T19:33:02;11.02;;;2.20;;
21492;SDS011;10908;50.690;4.400;2022-08-21T19:35:28;9.95;;;2.08;;
21492;SDS011;10908;50.690;4.400;2022-08-21T19:37:53;11.50;;;2.38;;
21492;SDS011;10908;50.690;4.400;2022-08-21T19:40:19;12.10;;;2.47;;
21492;SDS011;10908;50.690;4.400;2022-08-21T19:42:45;11.43;;;2.13;;
21492;SDS011;10908;50.690;4.400;2022-08-21T19:45:11;9.98;;;2.47;;
21492;SDS011;10908;50.690;4.400;2022-08-21T19:47:39;10.45;;;2.10;;
21492;SDS011;10908;50.690;4.400;2022-08-21T19:50:10;10.27;;;2.20;;
21492;SDS011;10908;50.690;4.400;2022-08-21T19:52:36;10.25;;;2.28;;
21492;SDS011;10908;50.690;4.400;2022-08-21T19:55:03;9.10;;;2.30;;
21492;SDS011;10908;50.690;4.400;2022-08-21T19:57:29;10.55;;;2.50;;
21492;SDS011;10908;50.690;4.400;2022-08-21T19:59:55;8.35;;;2.50;;
21492;SDS011;10908;50.690;4.400;2022-08-21T20:02:20;7.43;;;2.33;;
21492;SDS011;10908;50.690;4.400;2022-08-21T20:04:46;8.73;;;2.30;;
21492;SDS011;10908;50.690;4.400;2022-08-21T20:07:12;9.73;;;2.40;;
21492;SDS011;10908;50.690;4.400;2022-08-21T20:09:38;9.43;;;2.00;;
21492;SDS011;10908;50.690;4.400;2022-08-21T20:12:07;9.70;;;2.28;;
21492;SDS011;10908;50.690;4.400;2022-08-21T20:14:38;8.07;;;2.30;;
21492;SDS011;10908;50.690;4.400;2022-08-21T20:17:10;10.70;;;2.80;;
21492;SDS011;10908;50.690;4.400;2022-08-21T20:19:39;9.68;;;2.78;;
21492;SDS011;10908;50.690;4.400;2022-08-21T20:22:05;9.55;;;2.50;;
21492;SDS011;10908;50.690;4.400;2022-08-21T20:24:31;10.65;;;2.50;;
21492;SDS011;10908;50.690;4.400;2022-08-21T20:26:57;13.73;;;2.60;;
21492;SDS011;10908;50.690;4.400;2022-08-21T20:29:24;6.70;;;1.95;;
21492;SDS011;10908;50.690;4.400;2022-08-21T20:31:51;14.55;;;2.70;;
21492;SDS011;10908;50.690;4.400;2022-08-21T20:34:17;9.90;;;2.22;;
21492;SDS011;10908;50.690;4.400;2022-08-21T20:36:43;11.35;;;2.60;;
21492;SDS011;10908;50.690;4.400;2022-08-21T20:39:08;8.85;;;2.20;;
21492;SDS011;10908;50.690;4.400;2022-08-21T20:41:34;10.80;;;2.80;;
21492;SDS011;10908;50.690;4.400;2022-08-21T20:44:00;13.15;;;2.60;;
21492;SDS011;10908;50.690;4.400;2022-08-21T20:46:28;9.88;;;2.70;;
21492;SDS011;10908;50.690;4.400;2022-08-21T20:48:56;10.45;;;2.63;;
21492;SDS011;10908;50.690;4.400;2022-08-21T20:51:27;11.43;;;2.50;;
21492;SDS011;10908;50.690;4.400;2022-08-21T20:54:19;11.63;;;2.75;;
21492;SDS011;10908;50.690;4.400;2022-08-21T20:57:07;9.55;;;2.70;;
21492;SDS011;10908;50.690;4.400;2022-08-21T20:59:50;11.38;;;2.53;;
21492;SDS011;10908;50.690;4.400;2022-08-21T21:07:36;8.35;;;2.40;;
21492;SDS011;10908;50.690;4.400;2022-08-21T21:10:04;12.50;;;2.60;;
21492;SDS011;10908;50.690;4.400;2022-08-21T21:12:35;9.88;;;2.60;;
21492;SDS011;10908;50.690;4.400;2022-08-21T21:15:09;12.98;;;2.35;;
21492;SDS011;10908;50.690;4.400;2022-08-21T21:17:44;9.98;;;2.80;;
21492;SDS011;10908;50.690;4.400;2022-08-21T21:20:46;9.88;;;2.75;;
21492;SDS011;10908;50.690;4.400;2022-08-21T21:26:05;15.60;;;2.47;;
21492;SDS011;10908;50.690;4.400;2022-08-21T21:28:44;9.88;;;2.53;;
21492;SDS011;10908;50.690;4.400;2022-08-21T21:31:17;11.70;;;2.90;;
21492;SDS011;10908;50.690;4.400;2022-08-21T21:33:44;10.45;;;2.70;;
21492;SDS011;10908;50.690;4.400;2022-08-21T21:38:52;10.10;;;2.40;;
21492;SDS011;10908;50.690;4.400;2022-08-21T21:41:32;9.20;;;2.60;;
21492;SDS011;10908;50.690;4.400;2022-08-21T21:50:20;10.43;;;2.75;;
21492;SDS011;10908;50.690;4.400;2022-08-21T22:00:55;13.32;;;2.92;;
21492;SDS011;10908;50.690;4.400;2022-08-21T22:03:37;10.60;;;2.60;;
21492;SDS011;10908;50.690;4.400;2022-08-21T22:06:26;10.75;;;2.53;;
21492;SDS011;10908;50.690;4.400;2022-08-21T22:12:24;9.40;;;2.22;;
21492;SDS011;10908;50.690;4.400;2022-08-21T22:14:56;11.00;;;2.78;;
21492;SDS011;10908;50.690;4.400;2022-08-21T22:18:05;11.30;;;2.58;;
21492;SDS011;10908;50.690;4.400;2022-08-21T22:23:02;9.55;;;2.78;;
21492;SDS011;10908;50.690;4.400;2022-08-21T22:25:35;10.20;;;2.40;;
21492;SDS011;10908;50.690;4.400;2022-08-21T22:28:05;10.60;;;2.45;;
21492;SDS011;10908;50.690;4.400;2022-08-21T22:30:47;8.73;;;2.03;;
21492;SDS011;10908;50.690;4.400;2022-08-21T22:33:17;12.55;;;2.63;;
21492;SDS011;10908;50.690;4.400;2022-08-21T22:35:46;8.82;;;2.60;;
21492;SDS011;10908;50.690;4.400;2022-08-21T22:40:51;12.15;;;2.47;;
21492;SDS011;10908;50.690;4.400;2022-08-21T22:43:19;9.02;;;2.42;;
21492;SDS011;10908;50.690;4.400;2022-08-21T22:48:27;9.45;;;2.40;;
21492;SDS011;10908;50.690;4.400;2022-08-21T22:53:37;8.80;;;1.92;;
21492;SDS011;10908;50.690;4.400;2022-08-21T22:56:06;9.10;;;2.60;;
21492;SDS011;10908;50.690;4.400;2022-08-21T22:58:37;9.10;;;2.40;;
21492;SDS011;10908;50.690;4.400;2022-08-21T23:03:46;9.30;;;2.50;;
21492;SDS011;10908;50.690;4.400;2022-08-21T23:09:20;7.90;;;2.20;;
21492;SDS011;10908;50.690;4.400;2022-08-21T23:11:46;8.98;;;2.08;;
21492;SDS011;10908;50.690;4.400;2022-08-21T23:14:12;9.70;;;2.55;;
21492;SDS011;10908;50.690;4.400;2022-08-21T23:16:51;10.43;;;2.67;;
21492;SDS011;10908;50.690;4.400;2022-08-21T23:30:38;11.45;;;2.50;;
21492;SDS011;10908;50.690;4.400;2022-08-21T23:47:43;7.82;;;2.45;;
21492;SDS011;10908;50.690;4.400;2022-08-21T23:50:23;9.52;;;2.85;;
